createdAt,value
2017-04-30T00:00:38.702Z,73.54
2017-04-30T00:01:38.992Z,73.92
2017-04-30T00:02:38.980Z,73.73
2017-04-30T00:03:38.966Z,74.21
2017-04-30T00:04:38.954Z,74.21
2017-04-30T00:05:38.939Z,74.02
2017-04-30T00:06:38.927Z,73.92
2017-04-30T00:07:38.913Z,73.64
2017-04-30T00:08:38.900Z,73.73
2017-04-30T00:09:38.885Z,73.73
2017-04-30T00:10:38.912Z,73.73
2017-04-30T00:11:38.859Z,73.45
2017-04-30T00:12:38.845Z,73.64
2017-04-30T00:13:38.834Z,73.35
2017-04-30T00:14:38.819Z,73.54
2017-04-30T00:15:38.810Z,73.92
2017-04-30T00:16:38.802Z,73.92
2017-04-30T00:17:38.782Z,74.21
2017-04-30T00:18:38.774Z,73.92
2017-04-30T00:19:38.756Z,74.21
2017-04-30T00:20:38.738Z,73.92
2017-04-30T00:21:38.725Z,74.21
2017-04-30T00:22:38.720Z,74.21
2017-04-30T00:23:38.700Z,74.21
2017-04-30T00:24:38.687Z,74.4
2017-04-30T00:25:38.368Z,74.49
2017-04-30T00:26:38.668Z,74.02
2017-04-30T00:27:38.645Z,74.21
2017-04-30T00:28:38.330Z,74.21
2017-04-30T00:29:38.619Z,73.92
2017-04-30T00:30:38.606Z,74.21
2017-04-30T00:31:38.590Z,74.3
2017-04-30T00:32:38.577Z,74.3
2017-04-30T00:33:38.574Z,73.73
2017-04-30T00:34:38.551Z,74.11
2017-04-30T00:35:38.540Z,73.92
2017-04-30T00:36:38.523Z,74.4
2017-04-30T00:37:38.511Z,74.21
2017-04-30T00:38:38.194Z,74.11
2017-04-30T00:39:38.484Z,74.21
2017-04-30T00:40:38.472Z,74.3
2017-04-30T00:41:38.461Z,74.02
2017-04-30T00:42:38.444Z,74.11
2017-04-30T00:43:38.433Z,73.92
2017-04-30T00:44:38.416Z,74.4
2017-04-30T00:45:38.405Z,73.92
2017-04-30T00:46:38.388Z,74.68
2017-04-30T00:47:38.377Z,74.4
2017-04-30T00:48:38.363Z,74.02
2017-04-30T00:49:38.346Z,74.02
2017-04-30T00:50:38.336Z,74.58
2017-04-30T00:51:38.332Z,74.21
2017-04-30T00:52:38.310Z,74.21
2017-04-30T00:53:38.295Z,74.02
2017-04-30T00:54:38.279Z,73.92
2017-04-30T00:55:38.267Z,74.02
2017-04-30T00:56:38.254Z,74.21
2017-04-30T00:57:38.239Z,73.92
2017-04-30T00:58:38.231Z,73.92
2017-04-30T00:59:38.214Z,73.73
2017-04-30T01:00:38.199Z,73.92
2017-04-30T01:01:38.185Z,73.73
2017-04-30T01:02:38.177Z,73.73
2017-04-30T01:03:38.159Z,73.73
2017-04-30T01:04:38.153Z,73.92
2017-04-30T01:05:38.131Z,73.92
2017-04-30T01:06:38.118Z,73.92
2017-04-30T01:07:38.106Z,74.02
2017-04-30T01:08:38.091Z,74.02
2017-04-30T01:09:38.075Z,73.92
2017-04-30T01:10:38.062Z,73.92
2017-04-30T01:11:38.049Z,74.02
2017-04-30T01:12:38.035Z,74.02
2017-04-30T01:13:38.023Z,73.92
2017-04-30T01:14:38.008Z,73.88
2017-04-30T01:15:37.995Z,73.92
2017-04-30T01:16:37.979Z,74.11
2017-04-30T01:17:37.970Z,74.21
2017-04-30T01:18:37.952Z,74.11
2017-04-30T01:19:37.937Z,74.17
2017-04-30T01:20:37.926Z,74.36
2017-04-30T01:21:37.913Z,74.02
2017-04-30T01:22:37.897Z,73.88
2017-04-30T01:23:37.890Z,74.07
2017-04-30T01:24:37.874Z,73.88
2017-04-30T01:25:37.857Z,74.17
2017-04-30T01:26:38.192Z,74.26
2017-04-30T01:27:37.829Z,73.69
2017-04-30T01:28:37.818Z,73.98
2017-04-30T01:29:37.504Z,74.07
2017-04-30T01:30:37.485Z,73.88
2017-04-30T01:31:38.075Z,74.07
2017-04-30T01:32:37.764Z,74.17
2017-04-30T01:33:37.749Z,74.17
2017-04-30T01:34:37.738Z,73.98
2017-04-30T01:35:37.725Z,74.07
2017-04-30T01:36:37.962Z,74.07
2017-04-30T01:37:37.695Z,74.07
2017-04-30T01:38:37.679Z,74.17
2017-04-30T01:39:37.664Z,74.17
2017-04-30T01:40:37.350Z,74.36
2017-04-30T01:41:37.888Z,74.17
2017-04-30T01:42:37.624Z,73.98
2017-04-30T01:43:37.611Z,74.07
2017-04-30T01:44:37.291Z,73.88
2017-04-30T01:45:37.585Z,74.17
2017-04-30T01:46:37.868Z,74.26
2017-04-30T01:47:37.555Z,74.26
2017-04-30T01:48:37.555Z,74.17
2017-04-30T01:49:37.529Z,74.07
2017-04-30T01:50:37.516Z,74.17
2017-04-30T01:51:37.799Z,74.17
2017-04-30T01:52:37.485Z,74.36
2017-04-30T01:53:37.474Z,74.17
2017-04-30T01:54:37.458Z,74.17
2017-04-30T01:55:37.444Z,74.07
2017-04-30T01:56:37.680Z,74.07
2017-04-30T01:57:37.423Z,74.26
2017-04-30T01:58:37.403Z,74.26
2017-04-30T01:59:37.388Z,74.17
2017-04-30T02:00:37.374Z,74.36
2017-04-30T02:01:37.660Z,73.98
2017-04-30T02:02:37.349Z,74.26
2017-04-30T02:03:37.333Z,74.26
2017-04-30T02:04:37.018Z,74.17
2017-04-30T02:05:37.304Z,74.17
2017-04-30T02:06:37.574Z,74.74
2017-04-30T02:07:37.280Z,74.83
2017-04-30T02:08:37.266Z,74.17
2017-04-30T02:09:37.250Z,74.07
2017-04-30T02:10:37.272Z,74.17
2017-04-30T02:11:37.474Z,74.17
2017-04-30T02:12:37.211Z,73.88
2017-04-30T02:13:36.891Z,74.74
2017-04-30T02:14:37.180Z,74.07
2017-04-30T02:15:36.899Z,73.88
2017-04-30T02:16:37.453Z,74.17
2017-04-30T02:17:37.140Z,74.17
2017-04-30T02:18:37.129Z,74.17
2017-04-30T02:19:37.112Z,73.88
2017-04-30T02:20:37.096Z,74.17
2017-04-30T02:21:37.084Z,74.17
2017-04-30T02:22:37.070Z,74.26
2017-04-30T02:23:37.055Z,74.17
2017-04-30T02:24:37.045Z,73.88
2017-04-30T02:25:37.027Z,74.26
2017-04-30T02:26:37.013Z,74.36
2017-04-30T02:27:36.698Z,74.26
2017-04-30T02:28:36.985Z,73.98
2017-04-30T02:29:36.974Z,74.45
2017-04-30T02:30:36.958Z,74.36
2017-04-30T02:31:36.945Z,74.17
2017-04-30T02:32:36.628Z,74.17
2017-04-30T02:33:36.920Z,74.26
2017-04-30T02:34:36.904Z,74.17
2017-04-30T02:35:36.889Z,74.26
2017-04-30T02:36:36.876Z,74.17
2017-04-30T02:37:36.861Z,74.55
2017-04-30T02:38:36.850Z,74.55
2017-04-30T02:39:36.834Z,74.55
2017-04-30T02:40:36.819Z,74.45
2017-04-30T02:41:36.806Z,74.55
2017-04-30T02:42:36.794Z,74.83
2017-04-30T02:43:36.779Z,74.83
2017-04-30T02:44:36.764Z,74.07
2017-04-30T02:45:36.751Z,74.26
2017-04-30T02:46:36.737Z,74.07
2017-04-30T02:47:36.725Z,74.17
2017-04-30T02:48:36.712Z,74.36
2017-04-30T02:49:36.694Z,74.26
2017-04-30T02:50:36.679Z,74.26
2017-04-30T02:51:36.700Z,74.17
2017-04-30T02:52:36.652Z,74.26
2017-04-30T02:53:36.641Z,74.55
2017-04-30T02:54:36.626Z,74.58
2017-04-30T02:55:36.611Z,74.83
2017-04-30T02:56:36.599Z,74.07
2017-04-30T02:57:36.582Z,74.17
2017-04-30T02:58:36.575Z,74.26
2017-04-30T02:59:36.255Z,74.26
2017-04-30T03:00:36.238Z,74.55
2017-04-30T03:01:36.532Z,74.07
2017-04-30T03:02:36.212Z,74.55
2017-04-30T03:03:36.203Z,74.64
2017-04-30T03:04:36.493Z,74.55
2017-04-30T03:05:36.471Z,74.93
2017-04-30T03:06:36.465Z,74.64
2017-04-30T03:07:36.455Z,74.64
2017-04-30T03:08:36.441Z,74.07
2017-04-30T03:09:36.415Z,74.26
2017-04-30T03:10:36.413Z,74.36
2017-04-30T03:11:36.086Z,74.93
2017-04-30T03:12:36.377Z,74.55
2017-04-30T03:13:36.362Z,74.83
2017-04-30T03:14:36.050Z,73.79
2017-04-30T03:15:36.332Z,74.17
2017-04-30T03:16:36.321Z,74.11
2017-04-30T03:17:36.304Z,74.68
2017-04-30T03:18:35.988Z,74.77
2017-04-30T03:19:35.974Z,74.58
2017-04-30T03:20:36.263Z,74.58
2017-04-30T03:21:36.249Z,74.58
2017-04-30T03:22:36.234Z,74.96
2017-04-30T03:23:36.223Z,75.05
2017-04-30T03:24:36.208Z,74.68
2017-04-30T03:25:35.892Z,74.87
2017-04-30T03:26:35.875Z,74.02
2017-04-30T03:27:36.164Z,74.3
2017-04-30T03:28:36.153Z,74.4
2017-04-30T03:29:35.836Z,74.3
2017-04-30T03:30:35.820Z,74.87
2017-04-30T03:31:35.805Z,74.64
2017-04-30T03:32:36.396Z,74.64
2017-04-30T03:33:36.084Z,74.77
2017-04-30T03:34:36.068Z,74.58
2017-04-30T03:35:36.054Z,74.58
2017-04-30T03:36:36.041Z,74.49
2017-04-30T03:37:36.278Z,74.87
2017-04-30T03:38:36.013Z,74.21
2017-04-30T03:39:35.997Z,74.3
2017-04-30T03:40:35.984Z,74.3
2017-04-30T03:41:35.974Z,74.21
2017-04-30T03:42:36.256Z,74.87
2017-04-30T03:43:35.943Z,74.3
2017-04-30T03:44:35.935Z,74.96
2017-04-30T03:45:35.915Z,74.87
2017-04-30T03:46:35.903Z,74.58
2017-04-30T03:47:35.834Z,74.77
2017-04-30T03:48:35.880Z,74.87
2017-04-30T03:49:35.860Z,74.96
2017-04-30T03:50:35.848Z,74.21
2017-04-30T03:51:35.833Z,74.96
2017-04-30T03:52:36.074Z,74.87
2017-04-30T03:53:35.809Z,74.3
2017-04-30T03:54:35.792Z,74.3
2017-04-30T03:55:35.778Z,74.58
2017-04-30T03:56:35.762Z,74.87
2017-04-30T03:57:36.051Z,74.58
2017-04-30T03:58:35.742Z,74.87
2017-04-30T03:59:35.721Z,74.77
2017-04-30T04:00:35.709Z,74.21
2017-04-30T04:01:35.695Z,74.4
2017-04-30T04:02:35.931Z,74.21
2017-04-30T04:03:35.669Z,74.21
2017-04-30T04:04:35.653Z,74.3
2017-04-30T04:05:35.642Z,74.21
2017-04-30T04:06:35.628Z,74.21
2017-04-30T04:07:35.864Z,74.11
2017-04-30T04:08:35.602Z,74.4
2017-04-30T04:09:35.586Z,74.21
2017-04-30T04:10:35.578Z,74.21
2017-04-30T04:11:35.558Z,74.49
2017-04-30T04:12:35.845Z,74.3
2017-04-30T04:13:35.535Z,74.21
2017-04-30T04:14:35.518Z,73.92
2017-04-30T04:15:35.509Z,74.4
2017-04-30T04:16:35.493Z,74.15
2017-04-30T04:17:35.727Z,74.33
2017-04-30T04:18:35.467Z,74.52
2017-04-30T04:19:35.451Z,74.71
2017-04-30T04:20:35.441Z,74.47
2017-04-30T04:21:35.426Z,74.18
2017-04-30T04:22:35.112Z,74.28
2017-04-30T04:23:35.404Z,74.32
2017-04-30T04:24:35.394Z,74.41
2017-04-30T04:25:35.379Z,74.22
2017-04-30T04:26:35.370Z,74.07
2017-04-30T04:27:35.357Z,74.73
2017-04-30T04:28:35.345Z,74.83
2017-04-30T04:29:35.333Z,74.58
2017-04-30T04:30:35.327Z,74.39
2017-04-30T04:31:35.312Z,74.2
2017-04-30T04:32:35.303Z,73.48
2017-04-30T04:33:35.293Z,73.86
2017-04-30T04:34:35.285Z,73.33
2017-04-30T04:35:35.273Z,73.04
2017-04-30T04:36:35.264Z,73.04
2017-04-30T04:37:35.254Z,73.46
2017-04-30T04:38:35.248Z,73.46
2017-04-30T04:39:35.238Z,73.88
2017-04-30T04:40:35.231Z,73.69
2017-04-30T04:41:35.222Z,73.53
2017-04-30T04:42:35.215Z,73.91
2017-04-30T04:43:35.209Z,73.95
2017-04-30T04:44:35.199Z,74.04
2017-04-30T04:45:34.889Z,73.66
2017-04-30T04:46:35.184Z,73.7
2017-04-30T04:47:35.182Z,72.75
2017-04-30T04:48:35.173Z,71.93
2017-04-30T04:49:35.164Z,70.88
2017-04-30T04:50:35.159Z,70.63
2017-04-30T04:51:35.154Z,69.96
2017-04-30T04:52:35.149Z,69.29
2017-04-30T04:53:35.395Z,68.57
2017-04-30T04:54:35.138Z,67.61
2017-04-30T04:55:35.137Z,66.94
2017-04-30T04:56:35.128Z,65.89
2017-04-30T04:57:35.126Z,65.64
2017-04-30T04:58:35.419Z,65.17
2017-04-30T04:59:35.115Z,64.25
2017-04-30T05:00:35.115Z,63
2017-04-30T05:01:35.108Z,62.71
2017-04-30T05:02:35.105Z,62.08
2017-04-30T05:03:35.353Z,61.22
2017-04-30T05:04:35.097Z,60.68
2017-04-30T05:05:35.092Z,59.44
2017-04-30T05:06:35.091Z,58.32
2017-04-30T05:07:35.097Z,57.75
2017-04-30T05:08:35.386Z,56.69
2017-04-30T05:09:35.089Z,56.6
2017-04-30T05:10:35.084Z,55.96
2017-04-30T05:11:34.777Z,55.19
2017-04-30T05:12:35.085Z,54.8
2017-04-30T05:13:35.331Z,54.36
2017-04-30T05:14:35.080Z,53.11
2017-04-30T05:15:35.077Z,53.2
2017-04-30T05:16:35.078Z,52.47
2017-04-30T05:17:35.103Z,50.74
2017-04-30T05:18:35.338Z,51.03
2017-04-30T05:19:35.066Z,50.46
2017-04-30T05:20:35.071Z,49.88
2017-04-30T05:21:35.072Z,48.95
2017-04-30T05:22:35.071Z,49.62
2017-04-30T05:23:35.312Z,49.14
2017-04-30T05:24:35.070Z,48.85
2017-04-30T05:25:35.065Z,47.73
2017-04-30T05:26:35.069Z,46.48
2017-04-30T05:27:35.072Z,45.72
2017-04-30T05:28:35.315Z,45.81
2017-04-30T05:29:35.069Z,45.07
2017-04-30T05:30:35.068Z,44.78
2017-04-30T05:31:35.068Z,44.3
2017-04-30T05:32:35.073Z,43.24
2017-04-30T05:33:35.367Z,43.24
2017-04-30T05:34:35.070Z,42.77
2017-04-30T05:35:34.765Z,42.96
2017-04-30T05:36:35.073Z,42.29
2017-04-30T05:37:35.072Z,42
2017-04-30T05:38:35.369Z,41.33
2017-04-30T05:39:35.076Z,41.04
2017-04-30T05:40:35.080Z,41.42
2017-04-30T05:41:35.075Z,42.29
2017-04-30T05:42:35.079Z,42.1
2017-04-30T05:43:35.377Z,41.33
2017-04-30T05:44:35.075Z,40
2017-04-30T05:45:35.075Z,41.06
2017-04-30T05:46:35.076Z,41.54
2017-04-30T05:47:35.080Z,40.77
2017-04-30T05:48:35.331Z,40.1
2017-04-30T05:49:35.080Z,39.93
2017-04-30T05:50:35.083Z,39.06
2017-04-30T05:51:35.086Z,38.51
2017-04-30T05:52:35.086Z,37.84
2017-04-30T05:53:35.441Z,37.64
2017-04-30T05:54:35.098Z,37.16
2017-04-30T05:55:35.096Z,37.84
2017-04-30T05:56:35.098Z,37.26
2017-04-30T05:57:35.102Z,38.12
2017-04-30T05:58:35.353Z,38.32
2017-04-30T05:59:35.107Z,38.02
2017-04-30T06:00:35.109Z,38.22
2017-04-30T06:01:35.114Z,37.55
2017-04-30T06:02:35.116Z,37.45
2017-04-30T06:03:35.424Z,37.35
2017-04-30T06:04:35.123Z,37.45
2017-04-30T06:05:35.129Z,37.72
2017-04-30T06:06:35.133Z,38.02
2017-04-30T06:07:35.133Z,37.74
2017-04-30T06:08:35.387Z,37.64
2017-04-30T06:09:35.142Z,37.37
2017-04-30T06:10:35.145Z,37.08
2017-04-30T06:11:35.150Z,37.37
2017-04-30T06:12:35.154Z,37.2
2017-04-30T06:13:35.411Z,35.66
2017-04-30T06:14:35.160Z,34.89
2017-04-30T06:15:35.165Z,34.7
2017-04-30T06:16:35.169Z,35.38
2017-04-30T06:17:35.176Z,35.95
2017-04-30T06:18:35.430Z,36.43
2017-04-30T06:19:34.885Z,35.76
2017-04-30T06:20:35.190Z,36.05
2017-04-30T06:21:35.195Z,35.97
2017-04-30T06:22:35.198Z,35.58
2017-04-30T06:23:35.456Z,35.49
2017-04-30T06:24:35.210Z,33.87
2017-04-30T06:25:35.215Z,33.39
2017-04-30T06:26:35.229Z,33.1
2017-04-30T06:27:35.227Z,33.67
2017-04-30T06:28:35.486Z,33.67
2017-04-30T06:29:35.238Z,33.02
2017-04-30T06:30:35.247Z,32.54
2017-04-30T06:31:35.253Z,31.19
2017-04-30T06:32:35.260Z,31
2017-04-30T06:33:35.264Z,31.67
2017-04-30T06:34:35.274Z,31.29
2017-04-30T06:35:35.277Z,31.57
2017-04-30T06:36:35.285Z,31.95
2017-04-30T06:37:35.292Z,31.75
2017-04-30T06:38:35.558Z,32.14
2017-04-30T06:39:35.308Z,31.87
2017-04-30T06:40:35.319Z,31.09
2017-04-30T06:41:35.324Z,31.38
2017-04-30T06:42:35.330Z,31.67
2017-04-30T06:43:35.639Z,30.73
2017-04-30T06:44:35.344Z,30.73
2017-04-30T06:45:35.353Z,31.21
2017-04-30T06:46:35.359Z,29.66
2017-04-30T06:47:35.368Z,29.58
2017-04-30T06:48:35.626Z,29.87
2017-04-30T06:49:35.382Z,30.16
2017-04-30T06:50:35.392Z,29.77
2017-04-30T06:51:35.398Z,29.77
2017-04-30T06:52:35.408Z,29.97
2017-04-30T06:53:35.665Z,30.07
2017-04-30T06:54:35.424Z,28.91
2017-04-30T06:55:35.432Z,29.58
2017-04-30T06:56:35.439Z,29.68
2017-04-30T06:57:35.447Z,29.58
2017-04-30T06:58:35.706Z,30.16
2017-04-30T06:59:35.463Z,30.26
2017-04-30T07:00:35.170Z,29.97
2017-04-30T07:01:35.480Z,29.21
2017-04-30T07:02:35.489Z,29.11
2017-04-30T07:03:35.798Z,29.41
2017-04-30T07:04:35.506Z,28.84
2017-04-30T07:05:35.516Z,28.55
2017-04-30T07:06:35.520Z,27.98
2017-04-30T07:07:35.530Z,27.59
2017-04-30T07:08:35.851Z,27.22
2017-04-30T07:09:35.548Z,27.6
2017-04-30T07:10:35.556Z,27.49
2017-04-30T07:11:35.565Z,27.78
2017-04-30T07:12:35.575Z,27.86
2017-04-30T07:13:35.833Z,28.25
2017-04-30T07:14:35.591Z,28.72
2017-04-30T07:15:35.601Z,29.2
2017-04-30T07:16:35.610Z,29.2
2017-04-30T07:17:35.617Z,30.05
2017-04-30T07:18:35.881Z,29.57
2017-04-30T07:19:35.636Z,29.95
2017-04-30T07:20:35.641Z,30.24
2017-04-30T07:21:35.651Z,30.04
2017-04-30T07:22:35.657Z,30.42
2017-04-30T07:23:35.969Z,30.8
2017-04-30T07:24:35.673Z,29.74
2017-04-30T07:25:35.685Z,30.42
2017-04-30T07:26:35.690Z,31
2017-04-30T07:27:35.396Z,30.9
2017-04-30T07:28:35.755Z,31
2017-04-30T07:29:35.716Z,29.76
2017-04-30T07:30:35.725Z,29.76
2017-04-30T07:31:35.732Z,29.18
2017-04-30T07:32:35.741Z,28.61
2017-04-30T07:33:36.000Z,28.22
2017-04-30T07:34:35.754Z,28.31
2017-04-30T07:35:35.763Z,28.61
2017-04-30T07:36:35.771Z,29.46
2017-04-30T07:37:35.477Z,29.07
2017-04-30T07:38:36.101Z,29.83
2017-04-30T07:39:35.796Z,29.63
2017-04-30T07:40:35.808Z,30.02
2017-04-30T07:41:35.813Z,29.63
2017-04-30T07:42:35.823Z,30.4
2017-04-30T07:43:35.832Z,29.73
2017-04-30T07:44:35.837Z,29.84
2017-04-30T07:45:35.848Z,29.94
2017-04-30T07:46:35.852Z,29.65
2017-04-30T07:47:35.863Z,28.7
2017-04-30T07:48:35.872Z,28.33
2017-04-30T07:49:35.880Z,27.56
2017-04-30T07:50:35.887Z,27.38
2017-04-30T07:51:35.898Z,27.28
2017-04-30T07:52:35.907Z,26.53
2017-04-30T07:53:35.916Z,25.66
2017-04-30T07:54:35.927Z,25.95
2017-04-30T07:55:35.964Z,25.28
2017-04-30T07:56:35.946Z,25.08
2017-04-30T07:57:35.956Z,25.66
2017-04-30T07:58:35.968Z,26.32
2017-04-30T07:59:35.976Z,25.84
2017-04-30T08:00:35.993Z,25.93
2017-04-30T08:01:35.997Z,26.51
2017-04-30T08:02:36.017Z,26.59
2017-04-30T08:03:36.022Z,25.63
2017-04-30T08:04:36.032Z,25.73
2017-04-30T08:05:36.039Z,25.73
2017-04-30T08:06:36.051Z,26.1
2017-04-30T08:07:36.064Z,26.29
2017-04-30T08:08:36.072Z,26.57
2017-04-30T08:09:35.786Z,26.65
2017-04-30T08:10:36.092Z,27.51
2017-04-30T08:11:36.107Z,27.51
2017-04-30T08:12:36.113Z,27.13
2017-04-30T08:13:36.129Z,27.81
2017-04-30T08:14:36.133Z,27.61
2017-04-30T08:15:36.142Z,27.61
2017-04-30T08:16:36.150Z,28.48
2017-04-30T08:17:36.166Z,28.18
2017-04-30T08:18:36.174Z,28.08
2017-04-30T08:19:36.178Z,28.37
2017-04-30T08:20:36.195Z,28.37
2017-04-30T08:21:36.197Z,28.84
2017-04-30T08:22:36.208Z,29.13
2017-04-30T08:23:36.214Z,29.11
2017-04-30T08:24:36.222Z,29.86
2017-04-30T08:25:36.229Z,29.67
2017-04-30T08:26:36.238Z,30.44
2017-04-30T08:27:36.246Z,30.73
2017-04-30T08:28:36.255Z,31
2017-04-30T08:29:35.956Z,31.2
2017-04-30T08:30:36.267Z,30.52
2017-04-30T08:31:36.275Z,30.33
2017-04-30T08:32:36.288Z,30.62
2017-04-30T08:33:36.295Z,31.75
2017-04-30T08:34:36.296Z,32.42
2017-04-30T08:35:36.303Z,32.79
2017-04-30T08:36:36.315Z,32.79
2017-04-30T08:37:36.318Z,33.45
2017-04-30T08:38:36.323Z,33.92
2017-04-30T08:39:36.325Z,34.88
2017-04-30T08:40:36.332Z,35.53
2017-04-30T08:41:36.334Z,36.4
2017-04-30T08:42:36.341Z,36.1
2017-04-30T08:43:36.344Z,36.29
2017-04-30T08:44:36.344Z,36.94
2017-04-30T08:45:36.345Z,37.13
2017-04-30T08:46:36.349Z,37.04
2017-04-30T08:47:36.349Z,37.4
2017-04-30T08:50:36.347Z,38.81
2017-04-30T08:51:36.352Z,39.86
2017-04-30T08:52:36.345Z,40.44
2017-04-30T08:54:37.854Z,41.56
2017-04-30T08:55:38.359Z,42.43
2017-04-30T08:57:36.031Z,44.12
2017-04-30T08:58:36.330Z,44.7
2017-04-30T08:59:36.323Z,44.89
2017-04-30T09:00:36.319Z,44.22
2017-04-30T09:01:36.318Z,43.93
2017-04-30T09:03:36.308Z,44.01
2017-04-30T09:04:36.306Z,44.38
2017-04-30T09:05:36.301Z,44.48
2017-04-30T09:06:36.295Z,44.96
2017-04-30T09:07:35.994Z,45.43
2017-04-30T09:08:36.296Z,44.77
2017-04-30T09:09:36.282Z,44.38
2017-04-30T09:10:36.279Z,45.43
2017-04-30T09:11:35.972Z,45.89
2017-04-30T09:12:36.267Z,46.84
2017-04-30T09:13:36.265Z,47.03
2017-04-30T09:14:36.259Z,46.08
2017-04-30T09:15:36.252Z,46.56
2017-04-30T09:16:36.276Z,46.47
2017-04-30T09:17:36.244Z,46.18
2017-04-30T09:18:36.237Z,47.13
2017-04-30T09:19:36.236Z,47.71
2017-04-30T09:20:36.229Z,47.89
2017-04-30T09:21:36.223Z,48.57
2017-04-30T09:22:36.215Z,48.18
2017-04-30T09:23:36.214Z,48.08
2017-04-30T09:24:36.205Z,47.89
2017-04-30T09:25:36.201Z,47.61
2017-04-30T09:26:36.196Z,47.52
2017-04-30T09:27:36.191Z,47.99
2017-04-30T09:28:36.186Z,48.85
2017-04-30T09:29:36.186Z,47.99
2017-04-30T09:30:36.173Z,47.52
2017-04-30T09:31:36.170Z,47.03
2017-04-30T09:32:36.169Z,47.32
2017-04-30T09:33:36.160Z,47.8
2017-04-30T09:34:36.152Z,48.85
2017-04-30T09:35:36.150Z,48.85
2017-04-30T09:36:36.140Z,49.52
2017-04-30T09:37:36.136Z,49.13
2017-04-30T09:38:36.130Z,49.33
2017-04-30T09:39:36.125Z,47.23
2017-04-30T09:40:36.117Z,46.37
2017-04-30T09:41:36.114Z,46.37
2017-04-30T09:42:36.110Z,46.94
2017-04-30T09:43:36.103Z,46.94
2017-04-30T09:44:36.097Z,46.84
2017-04-30T09:45:36.091Z,47.23
2017-04-30T09:46:36.085Z,47.52
2017-04-30T09:47:36.081Z,47.8
2017-04-30T09:48:36.076Z,47.42
2017-04-30T09:49:36.069Z,47.89
2017-04-30T09:50:36.064Z,47.52
2017-04-30T09:51:36.060Z,47.52
2017-04-30T09:52:36.054Z,47.61
2017-04-30T09:53:36.050Z,47.61
2017-04-30T09:54:36.047Z,47.52
2017-04-30T09:55:35.733Z,47.42
2017-04-30T09:56:36.030Z,47.99
2017-04-30T09:57:36.024Z,48.37
2017-04-30T09:58:36.018Z,48.94
2017-04-30T09:59:36.013Z,47.71
2017-04-30T10:00:36.011Z,47.03
2017-04-30T10:01:36.001Z,46.75
2017-04-30T10:02:36.003Z,47.42
2017-04-30T10:03:35.996Z,47.61
2017-04-30T10:04:35.684Z,47.23
2017-04-30T10:05:35.985Z,47.52
2017-04-30T10:06:35.977Z,47.61
2017-04-30T10:07:35.969Z,47.32
2017-04-30T10:08:35.662Z,47.8
2017-04-30T10:09:35.960Z,47.8
2017-04-30T10:10:35.649Z,47.89
2017-04-30T10:11:35.947Z,47.99
2017-04-30T10:12:35.977Z,47.8
2017-04-30T10:13:35.936Z,48.08
2017-04-30T10:14:35.931Z,47.23
2017-04-30T10:15:35.926Z,46.84
2017-04-30T10:16:35.921Z,47.32
2017-04-30T10:17:35.614Z,46.66
2017-04-30T10:18:35.908Z,46.37
2017-04-30T10:19:35.902Z,46.08
2017-04-30T10:20:35.895Z,46.75
2017-04-30T10:21:35.897Z,46.94
2017-04-30T10:22:35.887Z,46.08
2017-04-30T10:23:35.883Z,46.37
2017-04-30T10:24:35.873Z,46.18
2017-04-30T10:25:36.170Z,46.3
2017-04-30T10:26:35.862Z,46.77
2017-04-30T10:27:35.859Z,45.63
2017-04-30T10:28:35.852Z,45.72
2017-04-30T10:29:35.847Z,45.43
2017-04-30T10:30:36.141Z,44.96
2017-04-30T10:31:35.839Z,44.77
2017-04-30T10:32:35.831Z,44.58
2017-04-30T10:33:35.828Z,44.38
2017-04-30T10:34:35.821Z,44.77
2017-04-30T10:35:36.065Z,45.15
2017-04-30T10:36:35.811Z,45.53
2017-04-30T10:37:35.811Z,45.72
2017-04-30T10:38:35.799Z,43.62
2017-04-30T10:39:36.153Z,44.12
2017-04-30T10:40:36.072Z,44.58
2017-04-30T10:41:35.782Z,44.58
2017-04-30T10:42:35.779Z,45.46
2017-04-30T10:43:35.775Z,45.53
2017-04-30T10:44:35.468Z,45.27
2017-04-30T10:45:36.010Z,45.72
2017-04-30T10:46:35.455Z,45.34
2017-04-30T10:47:35.755Z,44.31
2017-04-30T10:48:35.746Z,43.65
2017-04-30T10:49:35.741Z,44.29
2017-04-30T10:50:36.036Z,44.31
2017-04-30T10:51:35.733Z,44.48
2017-04-30T10:52:35.727Z,44.77
2017-04-30T10:53:35.723Z,45.34
2017-04-30T10:54:35.718Z,44.96
2017-04-30T10:55:35.961Z,45.25
2017-04-30T10:56:35.705Z,44.96
2017-04-30T10:57:35.699Z,44.87
2017-04-30T10:58:35.392Z,43.36
2017-04-30T10:59:35.688Z,42.88
2017-04-30T11:00:36.034Z,43.26
2017-04-30T11:01:35.679Z,43.65
2017-04-30T11:02:35.675Z,43.55
2017-04-30T11:03:35.668Z,43.36
2017-04-30T11:04:35.663Z,43.65
2017-04-30T11:05:35.706Z,42.69
2017-04-30T11:06:35.652Z,42.6
2017-04-30T11:07:35.648Z,41.45
2017-04-30T11:08:35.642Z,42.11
2017-04-30T11:09:35.641Z,41.93
2017-04-30T11:10:35.578Z,41.55
2017-04-30T11:11:35.625Z,41.16
2017-04-30T11:12:35.622Z,41.55
2017-04-30T11:13:35.620Z,40.99
2017-04-30T11:14:35.610Z,40.7
2017-04-30T11:15:35.906Z,40.89
2017-04-30T11:16:35.610Z,41.18
2017-04-30T11:17:35.599Z,41.28
2017-04-30T11:18:35.595Z,40.8
2017-04-30T11:19:35.589Z,40.8
2017-04-30T11:20:35.831Z,40.99
2017-04-30T11:21:35.574Z,40.7
2017-04-30T11:22:35.269Z,40.99
2017-04-30T11:23:35.565Z,39.84
2017-04-30T11:24:35.562Z,39.27
2017-04-30T11:25:35.856Z,39.58
2017-04-30T11:26:35.554Z,39.47
2017-04-30T11:27:35.249Z,39.94
2017-04-30T11:28:35.541Z,39.94
2017-04-30T11:29:35.537Z,40.7
2017-04-30T11:30:35.783Z,40.72
2017-04-30T11:31:35.527Z,40.72
2017-04-30T11:32:35.523Z,41.11
2017-04-30T11:33:35.520Z,40.72
2017-04-30T11:34:35.514Z,40.82
2017-04-30T11:35:35.808Z,40.82
2017-04-30T11:36:35.504Z,39.96
2017-04-30T11:37:35.500Z,39.39
2017-04-30T11:38:35.493Z,39.77
2017-04-30T11:39:35.489Z,39.2
2017-04-30T11:40:35.735Z,39
2017-04-30T11:41:35.479Z,39
2017-04-30T11:42:35.473Z,39.39
2017-04-30T11:43:35.470Z,39.86
2017-04-30T11:44:35.177Z,39.39
2017-04-30T11:45:35.811Z,39
2017-04-30T11:46:35.454Z,38.91
2017-04-30T11:47:35.452Z,38.7
2017-04-30T11:48:35.449Z,38.6
2017-04-30T11:49:35.440Z,39.18
2017-04-30T11:50:35.687Z,39.47
2017-04-30T11:51:35.429Z,39.75
2017-04-30T11:52:35.426Z,39.27
2017-04-30T11:53:35.425Z,38.51
2017-04-30T11:54:35.415Z,38.89
2017-04-30T11:55:35.664Z,38.79
2017-04-30T11:56:35.405Z,38.51
2017-04-30T11:57:35.401Z,39.08
2017-04-30T11:58:35.400Z,39.08
2017-04-30T11:59:35.394Z,38.7
2017-04-30T12:00:35.637Z,39.37
2017-04-30T12:01:35.381Z,39.56
2017-04-30T12:02:35.375Z,39.84
2017-04-30T12:03:35.369Z,39.65
2017-04-30T12:04:35.366Z,39.94
2017-04-30T12:05:35.660Z,39.94
2017-04-30T12:06:35.354Z,38.79
2017-04-30T12:07:35.349Z,38.6
2017-04-30T12:08:35.348Z,38.78
2017-04-30T12:09:35.340Z,38.58
2017-04-30T12:10:35.636Z,38.3
2017-04-30T12:11:35.329Z,38.68
2017-04-30T12:12:35.323Z,38.49
2017-04-30T12:13:35.318Z,38.3
2017-04-30T12:14:35.313Z,38.3
2017-04-30T12:15:35.003Z,38.49
2017-04-30T12:16:35.301Z,38.87
2017-04-30T12:17:35.299Z,39.54
2017-04-30T12:18:35.291Z,39.64
2017-04-30T12:19:35.288Z,40.2
2017-04-30T12:20:34.978Z,40.4
2017-04-30T12:21:35.275Z,40.01
2017-04-30T12:22:35.270Z,40.01
2017-04-30T12:23:35.266Z,40.4
2017-04-30T12:24:35.476Z,40.88
2017-04-30T12:25:35.258Z,40.69
2017-04-30T12:26:35.249Z,40.7
2017-04-30T12:27:35.244Z,38.7
2017-04-30T12:28:35.241Z,38.89
2017-04-30T12:29:35.234Z,38.98
2017-04-30T12:30:35.228Z,39.47
2017-04-30T12:31:35.221Z,39.75
2017-04-30T12:32:35.217Z,38.22
2017-04-30T12:33:35.214Z,38.12
2017-04-30T12:34:35.206Z,38.51
2017-04-30T12:35:35.200Z,38.32
2017-04-30T12:36:35.196Z,38.7
2017-04-30T12:37:35.189Z,38.41
2017-04-30T12:38:35.185Z,38.51
2017-04-30T12:39:35.182Z,38.98
2017-04-30T12:40:35.174Z,39.65
2017-04-30T12:41:35.168Z,39.06
2017-04-30T12:42:34.858Z,39.27
2017-04-30T12:43:35.158Z,39.47
2017-04-30T12:44:35.153Z,39.15
2017-04-30T12:45:35.144Z,39.06
2017-04-30T12:46:35.141Z,38.78
2017-04-30T12:47:35.135Z,38.87
2017-04-30T12:48:35.130Z,39.06
2017-04-30T12:49:35.124Z,39.06
2017-04-30T12:50:35.118Z,39.35
2017-04-30T12:51:35.113Z,39.64
2017-04-30T12:52:35.111Z,39.64
2017-04-30T12:53:35.103Z,39.73
2017-04-30T12:54:35.097Z,39.54
2017-04-30T12:55:35.091Z,39.54
2017-04-30T12:56:35.085Z,39.73
2017-04-30T12:57:35.080Z,39.64
2017-04-30T12:58:35.078Z,39.64
2017-04-30T12:59:35.072Z,39.64
2017-04-30T13:00:35.064Z,40.01